Time;durP1;ratioP1;P1;durP2;ratioP2;P2;SDS_P1;SDS_P2;PMS_P1;PMS_P2;Temp;Humidity;BMP_temperature;BMP_pressure;BME280_temperature;BME280_humidity;BME280_pressure;Samples;Min_cycle;Max_cycle;Signal;HPM_P1;HPM_P2
2022/01/20 00:02:08;;;;;;;26.45;3.80;;;6.80;99.90;;;;;;5016525;28;20181;-82
2022/01/20 00:26:05;;;;;;;15.82;2.28;;;6.50;99.90;;;;;;5012955;28;20275;-79
2022/01/20 00:28:46;;;;;;;7.05;2.25;;;6.30;99.90;;;;;;5015770;28;20617;-79
2022/01/20 00:31:41;;;;;;;10.07;1.80;;;6.30;99.90;;;;;;5015489;28;20191;-83
2022/01/20 00:34:12;;;;;;;12.63;2.10;;;6.50;99.90;;;;;;5015619;28;20187;-79
2022/01/20 00:39:23;;;;;;;10.85;2.38;;;6.40;99.90;;;;;;5015767;28;20326;-80
2022/01/20 00:41:49;;;;;;;12.70;1.55;;;6.30;99.90;;;;;;5015400;28;20684;-80
2022/01/20 00:44:14;;;;;;;18.15;1.98;;;6.30;99.90;;;;;;5030563;28;20633;-83
2022/01/20 00:46:40;;;;;;;11.57;1.70;;;6.30;99.90;;;;;;5015292;28;20172;-80
2022/01/20 00:49:05;;;;;;;9.40;2.50;;;6.30;99.90;;;;;;5015511;28;20172;-83
2022/01/20 00:51:31;;;;;;;10.57;1.90;;;6.30;99.90;;;;;;5015353;28;20219;-80
2022/01/20 00:53:57;;;;;;;9.13;2.38;;;6.30;99.90;;;;;;5013733;28;20204;-83
2022/01/20 00:56:22;;;;;;;11.98;2.65;;;6.30;99.90;;;;;;5015258;28;20172;-83
2022/01/20 00:58:48;;;;;;;13.13;2.15;;;6.40;99.90;;;;;;5014972;28;20175;-82
2022/01/20 01:01:14;;;;;;;11.18;2.40;;;6.30;99.90;;;;;;5014982;28;20653;-81
2022/01/20 01:03:39;;;;;;;13.10;2.83;;;6.10;99.90;;;;;;5014993;28;20244;-80
2022/01/20 01:08:33;;;;;;;14.10;2.70;;;6.40;99.90;;;;;;5015041;28;20168;-80
2022/01/20 01:10:59;;;;;;;14.77;2.38;;;6.50;99.90;;;;;;5014928;28;20668;-80
2022/01/20 01:13:27;;;;;;;13.43;2.20;;;6.60;99.90;;;;;;5014732;28;20173;-81
2022/01/20 01:15:53;;;;;;;9.73;1.77;;;6.30;99.90;;;;;;5014836;28;20161;-81
2022/01/20 01:23:32;;;;;;;10.20;2.20;;;6.10;99.90;;;;;;5014874;28;20160;-82
2022/01/20 01:25:59;;;;;;;11.80;2.30;;;6.10;99.90;;;;;;5014558;28;20259;-81
2022/01/20 01:28:27;;;;;;;21.45;2.65;;;6.30;99.90;;;;;;5014568;28;20200;-83
2022/01/20 01:33:41;;;;;;;5.97;2.22;;;6.40;99.90;;;;;;5014808;28;20697;-82
2022/01/20 01:36:08;;;;;;;10.05;2.70;;;6.40;99.90;;;;;;5013465;28;20168;-82
2022/01/20 01:38:38;;;;;;;9.25;2.25;;;6.50;99.90;;;;;;5029769;28;20595;-82
2022/01/20 01:41:11;;;;;;;19.48;2.20;;;6.50;99.90;;;;;;5014390;28;20211;-82
2022/01/20 01:43:41;;;;;;;14.85;3.00;;;6.60;99.90;;;;;;5014357;28;20172;-81
2022/01/20 01:46:07;;;;;;;24.60;3.65;;;6.50;99.90;;;;;;5014068;28;20193;-81
2022/01/20 01:48:34;;;;;;;22.42;3.00;;;6.50;99.90;;;;;;5014413;28;20215;-80
2022/01/20 01:51:00;;;;;;;15.55;1.98;;;6.40;99.90;;;;;;5014390;28;20216;-81
2022/01/20 01:53:27;;;;;;;16.10;2.28;;;6.40;99.90;;;;;;5014178;28;20570;-80
2022/01/20 01:55:53;;;;;;;18.67;2.33;;;6.20;99.90;;;;;;5014076;28;20169;-81
2022/01/20 01:58:18;;;;;;;13.15;2.92;;;6.20;99.90;;;;;;5029181;28;20168;-80
2022/01/20 02:00:44;;;;;;;12.38;3.03;;;6.30;99.90;;;;;;5014085;28;20322;-82
2022/01/20 02:03:13;;;;;;;13.52;2.85;;;6.30;99.90;;;;;;5014111;28;20270;-82
2022/01/20 02:05:51;;;;;;;10.75;2.88;;;6.30;99.90;;;;;;5013313;28;20164;-81
2022/01/20 02:08:36;;;;;;;16.42;3.15;;;6.50;99.90;;;;;;5012704;28;20179;-82
2022/01/20 02:19:16;;;;;;;9.70;1.90;;;6.60;99.90;;;;;;5013297;28;20183;-82
2022/01/20 02:21:55;;;;;;;8.77;2.08;;;6.60;99.90;;;;;;5013709;28;20942;-82
2022/01/20 02:24:21;;;;;;;5.45;2.42;;;6.50;99.90;;;;;;5029104;28;20565;-81
2022/01/20 02:26:47;;;;;;;9.68;1.83;;;6.60;99.90;;;;;;5013605;28;20637;-79
2022/01/20 02:29:13;;;;;;;12.02;2.08;;;6.80;99.90;;;;;;5013874;28;20191;-80
2022/01/20 02:31:39;;;;;;;12.73;2.95;;;6.80;99.90;;;;;;5013359;28;20216;-81
2022/01/20 02:34:09;;;;;;;11.98;1.85;;;6.70;99.90;;;;;;5013721;28;20218;-81
2022/01/20 02:36:36;;;;;;;6.68;1.60;;;6.60;99.90;;;;;;5028668;28;20211;-81
2022/01/20 02:39:11;;;;;;;14.93;1.30;;;6.80;99.90;;;;;;5028554;28;20230;-83
2022/01/20 02:47:12;;;;;;;6.65;1.58;;;6.60;99.90;;;;;;5013315;28;20272;-83
2022/01/20 02:49:38;;;;;;;7.28;1.50;;;6.40;99.90;;;;;;5013024;28;20263;-83
2022/01/20 02:52:06;;;;;;;9.93;2.03;;;6.40;99.90;;;;;;5012995;28;20204;-81
2022/01/20 02:54:31;;;;;;;2.80;1.27;;;6.30;99.90;;;;;;5013144;28;20195;-83
2022/01/20 02:56:57;;;;;;;5.80;1.00;;;6.30;99.90;;;;;;5013119;28;20200;-81
2022/01/20 02:59:23;;;;;;;5.53;1.63;;;6.40;99.90;;;;;;5013138;28;20167;-83
2022/01/20 03:01:48;;;;;;;8.23;1.17;;;6.30;99.90;;;;;;5013089;28;20711;-82
2022/01/20 03:04:14;;;;;;;13.85;1.95;;;6.40;99.90;;;;;;5028299;28;20168;-83
2022/01/20 03:06:40;;;;;;;3.22;1.70;;;6.40;99.90;;;;;;5013066;28;20164;-81
2022/01/20 03:09:05;;;;;;;9.32;1.95;;;6.50;99.90;;;;;;5013110;28;20181;-83
2022/01/20 03:11:31;;;;;;;12.50;1.63;;;6.60;99.90;;;;;;5012659;28;20212;-81
2022/01/20 03:13:57;;;;;;;3.47;1.38;;;6.50;99.90;;;;;;5012768;28;20252;-82
2022/01/20 03:16:23;;;;;;;6.55;1.30;;;6.50;99.90;;;;;;5012871;28;20255;-82
2022/01/20 03:18:48;;;;;;;7.80;1.38;;;6.40;99.90;;;;;;5011826;28;20169;-82
2022/01/20 03:21:14;;;;;;;4.03;1.27;;;6.50;99.90;;;;;;5028209;28;20192;-81
2022/01/20 03:23:40;;;;;;;10.95;1.10;;;6.60;99.90;;;;;;5012876;28;20231;-82
2022/01/20 03:26:06;;;;;;;8.18;1.52;;;6.70;99.90;;;;;;5012943;28;20173;-81
2022/01/20 03:28:31;;;;;;;13.55;1.80;;;6.50;99.90;;;;;;5012794;28;20248;-82
2022/01/20 03:30:57;;;;;;;7.47;1.48;;;6.30;99.90;;;;;;5012522;28;20715;-81
2022/01/20 03:33:22;;;;;;;4.15;1.48;;;6.10;99.90;;;;;;5011376;28;20207;-83
2022/01/20 03:35:50;;;;;;;2.15;1.40;;;6.10;99.90;;;;;;5012554;28;20234;-81
2022/01/20 03:38:15;;;;;;;4.68;1.15;;;6.10;99.90;;;;;;5027958;28;20177;-82
2022/01/20 03:40:41;;;;;;;5.85;1.27;;;6.00;99.90;;;;;;5012678;28;20798;-81
2022/01/20 03:43:07;;;;;;;1.88;1.27;;;6.00;99.90;;;;;;5012505;28;20176;-81
2022/01/20 03:45:32;;;;;;;5.45;2.10;;;5.90;99.90;;;;;;5012653;28;20183;-83
2022/01/20 03:48:07;;;;;;;3.55;1.80;;;6.20;99.90;;;;;;5012709;28;20183;-82
2022/01/20 03:53:18;;;;;;;3.67;1.50;;;6.20;99.90;;;;;;5012610;28;20246;-83
2022/01/20 03:55:44;;;;;;;2.20;1.42;;;6.30;99.90;;;;;;5012446;28;20161;-82
2022/01/20 03:58:10;;;;;;;7.30;1.98;;;6.40;99.90;;;;;;5012440;28;20641;-83
2022/01/20 04:00:35;;;;;;;4.60;1.50;;;6.40;99.90;;;;;;5011173;28;20548;-83
2022/01/20 04:03:01;;;;;;;3.28;1.63;;;6.30;99.90;;;;;;5011996;28;20207;-80
2022/01/20 04:05:27;;;;;;;2.83;1.23;;;6.20;99.90;;;;;;5013189;28;20161;-83
2022/01/20 04:07:52;;;;;;;7.20;1.52;;;6.20;99.90;;;;;;5013941;28;20173;-83
2022/01/20 04:10:18;;;;;;;8.73;1.70;;;6.30;99.90;;;;;;5027630;28;20640;-81
2022/01/20 04:12:43;;;;;;;3.53;1.60;;;6.30;99.90;;;;;;5012769;28;20180;-81
2022/01/20 04:15:10;;;;;;;6.13;1.70;;;6.20;99.90;;;;;;5012482;28;20164;-82
2022/01/20 04:17:41;;;;;;;6.68;1.70;;;6.30;99.90;;;;;;5012243;28;20177;-82
2022/01/20 04:20:08;;;;;;;4.57;1.60;;;6.30;99.90;;;;;;5012280;28;20243;-83
2022/01/20 04:22:34;;;;;;;11.20;2.15;;;6.50;99.90;;;;;;5010940;28;20239;-82
2022/01/20 04:25:00;;;;;;;2.72;1.25;;;6.50;99.90;;;;;;5011040;28;20527;-83
2022/01/20 04:27:26;;;;;;;2.20;1.25;;;6.50;99.90;;;;;;5012200;28;20218;-81
2022/01/20 04:29:51;;;;;;;3.88;1.30;;;6.40;99.90;;;;;;5014528;28;20629;-81
2022/01/20 04:32:17;;;;;;;4.40;1.13;;;6.40;99.90;;;;;;5030760;28;20681;-81
2022/01/20 04:34:44;;;;;;;3.15;1.52;;;6.40;99.90;;;;;;5015755;28;20167;-82
2022/01/20 04:37:10;;;;;;;7.32;1.27;;;6.50;99.90;;;;;;5015628;28;20214;-83
2022/01/20 04:39:42;;;;;;;10.20;1.27;;;6.40;99.90;;;;;;5015377;28;20617;-83
2022/01/20 04:42:08;;;;;;;11.02;2.33;;;6.40;99.90;;;;;;5030593;28;20657;-82
2022/01/20 04:45:00;;;;;;;11.38;1.63;;;6.40;99.90;;;;;;5030721;28;20184;-82
2022/01/20 04:47:41;;;;;;;5.82;1.08;;;6.40;99.90;;;;;;5015172;28;20184;-81
2022/01/20 04:58:20;;;;;;;8.60;1.50;;;6.20;99.90;;;;;;5015408;28;20227;-81
2022/01/20 05:00:46;;;;;;;6.82;1.75;;;6.20;99.90;;;;;;5015172;28;20189;-82
2022/01/20 05:03:11;;;;;;;5.78;1.77;;;6.00;99.90;;;;;;5015160;28;20192;-82
2022/01/20 05:05:37;;;;;;;11.15;1.92;;;5.80;99.90;;;;;;5015797;28;20175;-84
2022/01/20 05:08:03;;;;;;;16.70;2.97;;;5.80;99.90;;;;;;5014877;28;20226;-82
2022/01/20 05:10:33;;;;;;;9.60;1.88;;;5.80;99.90;;;;;;5014806;28;20592;-82
2022/01/20 05:13:07;;;;;;;10.18;1.95;;;5.80;99.90;;;;;;5014840;28;20621;-82
2022/01/20 05:15:33;;;;;;;10.02;2.25;;;5.70;99.90;;;;;;5015067;28;20238;-83
2022/01/20 05:17:59;;;;;;;5.53;1.45;;;5.70;99.90;;;;;;5013469;28;20631;-82
2022/01/20 05:20:25;;;;;;;10.30;2.55;;;5.80;99.90;;;;;;5013518;28;20251;-81
2022/01/20 05:22:51;;;;;;;14.13;3.03;;;5.90;99.90;;;;;;5014978;28;20185;-82
2022/01/20 05:25:17;;;;;;;6.32;1.98;;;6.10;99.90;;;;;;5015001;28;20177;-82
2022/01/20 05:27:42;;;;;;;9.27;2.33;;;6.10;99.90;;;;;;5014762;28;20330;-82
2022/01/20 05:30:09;;;;;;;10.57;1.65;;;6.10;99.90;;;;;;5029591;28;20177;-81
2022/01/20 05:32:34;;;;;;;10.07;2.63;;;6.10;99.90;;;;;;5014511;28;20232;-81
2022/01/20 05:35:00;;;;;;;9.10;2.53;;;6.30;99.90;;;;;;5014579;28;20323;-82
2022/01/20 05:37:26;;;;;;;18.30;2.20;;;6.30;99.90;;;;;;5029558;28;20169;-82
2022/01/20 05:39:51;;;;;;;11.15;2.65;;;6.30;99.90;;;;;;5013828;28;20200;-81
2022/01/20 05:42:17;;;;;;;12.98;2.33;;;6.20;99.90;;;;;;5013485;28;20196;-82
2022/01/20 05:44:44;;;;;;;9.07;1.58;;;6.10;99.90;;;;;;5029489;28;20748;-81
2022/01/20 05:47:12;;;;;;;9.23;1.80;;;6.00;99.90;;;;;;5014426;28;20168;-82
2022/01/20 05:49:37;;;;;;;9.50;2.00;;;6.00;99.90;;;;;;5029274;28;20187;-82
2022/01/20 05:52:03;;;;;;;18.27;2.63;;;6.10;99.90;;;;;;5029384;28;20216;-83
2022/01/20 05:54:29;;;;;;;17.08;2.50;;;6.00;99.90;;;;;;5012903;28;20226;-82
2022/01/20 05:56:55;;;;;;;15.18;2.10;;;6.00;99.90;;;;;;5013695;28;20247;-80
2022/01/20 05:59:21;;;;;;;13.88;1.88;;;6.00;99.90;;;;;;5013556;28;20173;-81
2022/01/20 06:01:53;;;;;;;20.27;2.33;;;5.90;99.90;;;;;;5012437;28;20223;-82
2022/01/20 06:04:19;;;;;;;8.95;2.03;;;6.00;99.90;;;;;;5014025;28;20169;-81
2022/01/20 06:06:44;;;;;;;5.55;1.65;;;6.00;99.90;;;;;;5029427;28;20192;-81
2022/01/20 06:09:10;;;;;;;8.60;2.70;;;6.10;99.90;;;;;;5028841;28;20165;-82
2022/01/20 06:11:36;;;;;;;13.57;2.05;;;6.20;99.90;;;;;;5028655;28;20216;-82
2022/01/20 06:14:04;;;;;;;24.05;2.53;;;6.30;99.90;;;;;;5029119;28;20597;-83
2022/01/20 06:16:30;;;;;;;12.93;2.95;;;6.40;99.90;;;;;;5012398;28;20210;-81
2022/01/20 06:18:56;;;;;;;11.68;3.55;;;6.30;99.90;;;;;;5014043;28;20190;-82
2022/01/20 06:21:22;;;;;;;15.63;2.45;;;6.30;99.90;;;;;;5050533;23;20230;-75
2022/01/20 06:23:48;;;;;;;13.52;2.00;;;6.30;99.90;;;;;;5052069;28;20186;-76
2022/01/20 06:26:13;;;;;;;8.00;2.05;;;6.60;99.90;;;;;;5053107;28;20520;-81
2022/01/20 06:28:42;;;;;;;5.53;1.83;;;6.60;99.90;;;;;;5053303;28;20159;-76
2022/01/20 06:31:09;;;;;;;7.78;1.40;;;6.70;99.90;;;;;;5053436;28;20203;-76
2022/01/20 06:33:34;;;;;;;5.30;1.40;;;6.40;99.90;;;;;;5053890;28;20175;-76
2022/01/20 06:36:00;;;;;;;10.02;2.58;;;6.40;99.90;;;;;;5053713;28;20171;-78
2022/01/20 06:38:26;;;;;;;10.20;1.65;;;6.50;99.90;;;;;;5053395;28;20159;-75
2022/01/20 06:43:17;;;;;;;9.70;2.30;;;6.50;99.90;;;;;;5053692;28;20179;-82
2022/01/20 06:45:43;;;;;;;4.30;1.95;;;6.50;99.90;;;;;;5053225;28;20285;-81
2022/01/20 06:48:09;;;;;;;8.15;1.77;;;6.50;99.90;;;;;;5053669;28;20186;-76
2022/01/20 06:50:35;;;;;;;15.60;1.77;;;6.60;99.90;;;;;;5053905;28;20190;-78
2022/01/20 06:53:01;;;;;;;9.63;1.55;;;6.60;99.90;;;;;;5053232;28;20528;-78
2022/01/20 06:55:26;;;;;;;10.93;2.38;;;6.50;99.90;;;;;;5053325;28;20167;-76
2022/01/20 06:57:52;;;;;;;10.02;1.55;;;6.60;99.90;;;;;;5053291;28;20163;-82
2022/01/20 07:00:20;;;;;;;13.27;1.95;;;6.70;99.90;;;;;;5053113;28;20167;-79
2022/01/20 07:02:47;;;;;;;11.57;1.60;;;6.80;99.90;;;;;;5052997;28;20171;-77
2022/01/20 07:05:15;;;;;;;11.68;1.58;;;6.90;99.90;;;;;;5053142;28;20186;-77
2022/01/20 07:07:41;;;;;;;9.65;2.25;;;6.80;99.90;;;;;;5053922;28;20623;-77
2022/01/20 07:10:09;;;;;;;10.85;1.40;;;6.80;99.90;;;;;;5052813;28;20307;-76
2022/01/20 07:12:36;;;;;;;7.47;1.30;;;6.40;99.90;;;;;;5053581;28;20207;-76
2022/01/20 07:15:03;;;;;;;7.90;1.65;;;6.30;99.90;;;;;;5061477;28;20163;-76
2022/01/20 07:17:29;;;;;;;5.63;1.80;;;6.30;99.90;;;;;;5063639;28;20234;-77
2022/01/20 07:19:56;;;;;;;13.75;1.73;;;6.30;99.90;;;;;;5067787;28;20163;-77
2022/01/20 07:22:22;;;;;;;3.50;1.25;;;6.40;99.90;;;;;;5065017;28;20211;-77
2022/01/20 07:24:52;;;;;;;6.88;1.45;;;6.30;99.90;;;;;;5065715;28;20198;-78
2022/01/20 07:27:21;;;;;;;10.85;1.77;;;6.40;99.90;;;;;;5062939;28;20185;-76
2022/01/20 07:29:47;;;;;;;2.92;1.30;;;6.60;99.90;;;;;;5055928;28;20159;-76
2022/01/20 07:32:12;;;;;;;8.57;1.75;;;6.50;99.90;;;;;;5062769;28;20281;-76
2022/01/20 07:34:38;;;;;;;7.88;2.47;;;6.70;99.90;;;;;;5059482;28;20167;-77
2022/01/20 07:37:05;;;;;;;13.70;1.27;;;6.80;99.90;;;;;;5081693;28;20171;-75
2022/01/20 07:39:32;;;;;;;5.82;1.33;;;6.70;99.90;;;;;;5063775;28;20167;-78
2022/01/20 07:41:58;;;;;;;10.35;1.45;;;6.80;99.90;;;;;;5065283;28;20250;-77
2022/01/20 07:44:30;;;;;;;11.85;1.40;;;6.90;99.90;;;;;;5069934;28;20187;-75
2022/01/20 07:46:57;;;;;;;7.13;1.45;;;7.00;99.90;;;;;;5082980;28;20164;-75
2022/01/20 07:49:23;;;;;;;6.15;2.03;;;6.90;99.90;;;;;;5067579;28;20211;-78
2022/01/20 07:51:48;;;;;;;6.80;1.83;;;7.00;99.90;;;;;;5066899;28;20219;-75
2022/01/20 07:54:14;;;;;;;10.15;1.45;;;7.10;99.90;;;;;;5060985;28;20163;-75
2022/01/20 07:56:40;;;;;;;8.80;1.63;;;6.90;99.90;;;;;;5062026;28;20173;-76
2022/01/20 07:59:06;;;;;;;22.80;1.98;;;6.80;99.90;;;;;;5072822;28;20222;-76
2022/01/20 08:01:32;;;;;;;3.65;1.05;;;6.70;99.90;;;;;;5075430;28;20182;-76
2022/01/20 08:03:59;;;;;;;13.93;1.50;;;6.70;99.90;;;;;;5075540;28;20167;-73
2022/01/20 08:06:24;;;;;;;6.68;1.10;;;6.60;99.90;;;;;;5078673;28;20235;-76
2022/01/20 08:08:50;;;;;;;6.97;1.45;;;6.60;99.90;;;;;;5076897;28;20174;-76
2022/01/20 08:11:18;;;;;;;9.68;2.17;;;6.80;99.90;;;;;;5078599;28;20226;-75
2022/01/20 08:13:44;;;;;;;9.75;1.63;;;6.80;99.90;;;;;;5078365;28;20177;-74
2022/01/20 08:16:10;;;;;;;7.07;1.40;;;6.70;99.90;;;;;;5078258;28;20186;-75
2022/01/20 08:18:36;;;;;;;6.93;1.75;;;6.70;99.90;;;;;;5067837;28;20183;-77
2022/01/20 08:21:01;;;;;;;3.33;1.33;;;6.60;99.90;;;;;;5062308;28;20204;-74
2022/01/20 08:23:27;;;;;;;9.02;1.67;;;6.70;99.90;;;;;;5062049;28;20174;-75
2022/01/20 08:25:53;;;;;;;5.80;1.25;;;6.90;99.90;;;;;;5059164;28;20175;-74
2022/01/20 08:28:21;;;;;;;6.43;1.38;;;6.80;99.90;;;;;;5056888;28;20167;-74
2022/01/20 08:30:47;;;;;;;6.35;1.65;;;7.00;99.90;;;;;;5065985;28;22115;-75
2022/01/20 08:33:13;;;;;;;6.78;1.80;;;7.00;99.90;;;;;;5056332;28;20191;-74
2022/01/20 08:35:39;;;;;;;3.67;1.30;;;7.00;99.90;;;;;;5056860;28;20509;-74
2022/01/20 08:38:06;;;;;;;9.68;1.38;;;7.10;99.90;;;;;;5055184;28;20659;-75
2022/01/20 08:40:33;;;;;;;6.45;2.15;;;7.10;99.90;;;;;;5055773;28;20259;-75
2022/01/20 08:42:59;;;;;;;12.32;3.03;;;7.30;99.90;;;;;;5055212;28;20175;-75
2022/01/20 08:45:30;;;;;;;7.57;2.25;;;7.40;99.90;;;;;;5055126;28;20530;-77
2022/01/20 08:47:57;;;;;;;10.82;2.08;;;7.40;99.90;;;;;;5055483;28;20240;-75
2022/01/20 08:50:25;;;;;;;14.75;1.42;;;7.30;99.90;;;;;;5055323;28;20183;-82
2022/01/20 08:52:51;;;;;;;10.00;1.30;;;7.20;99.90;;;;;;5054980;28;20202;-78
2022/01/20 08:55:17;;;;;;;9.88;1.38;;;6.90;99.90;;;;;;5055255;28;20531;-79
2022/01/20 08:57:44;;;;;;;18.83;1.40;;;6.80;99.90;;;;;;5055199;28;20258;-76
2022/01/20 09:00:11;;;;;;;10.38;2.08;;;6.80;99.90;;;;;;5054958;28;20174;-76
2022/01/20 09:02:37;;;;;;;13.93;1.80;;;6.60;99.90;;;;;;5059900;28;20163;-76
2022/01/20 09:05:05;;;;;;;6.53;1.65;;;6.50;99.90;;;;;;5058305;28;20164;-80
2022/01/20 09:07:31;;;;;;;19.98;1.65;;;6.50;99.90;;;;;;5059121;28;20190;-75
2022/01/20 09:09:59;;;;;;;8.55;1.73;;;6.60;99.90;;;;;;5048636;28;20545;-76
2022/01/20 09:17:48;;;;;;;15.50;1.90;;;7.10;99.90;;;;;;5067260;28;20614;-76
2022/01/20 09:20:16;;;;;;;10.27;2.10;;;7.20;99.90;;;;;;5054790;28;20172;-80
2022/01/20 09:22:42;;;;;;;13.27;2.45;;;7.10;99.90;;;;;;5055355;28;20199;-76
2022/01/20 09:25:09;;;;;;;12.55;1.90;;;7.10;99.90;;;;;;5060884;28;20170;-76
2022/01/20 09:27:34;;;;;;;8.25;1.73;;;7.30;99.90;;;;;;5060364;28;20199;-77
2022/01/20 09:30:02;;;;;;;15.60;1.52;;;7.30;99.90;;;;;;5057880;28;20186;-78
2022/01/20 09:32:30;;;;;;;13.05;2.67;;;7.10;99.90;;;;;;5054610;28;20210;-76
2022/01/20 09:34:56;;;;;;;8.15;1.83;;;7.00;99.90;;;;;;5059525;28;20168;-78
2022/01/20 09:37:23;;;;;;;12.88;1.90;;;7.00;99.90;;;;;;5057081;28;20216;-75
2022/01/20 09:39:49;;;;;;;7.50;2.35;;;7.10;99.90;;;;;;5055689;28;20683;-75
2022/01/20 09:42:14;;;;;;;9.00;1.77;;;7.00;99.90;;;;;;5053738;28;20187;-79
2022/01/20 09:44:45;;;;;;;16.23;2.00;;;7.00;99.90;;;;;;5065612;28;20175;-80
2022/01/20 09:47:13;;;;;;;9.90;2.30;;;7.20;99.90;;;;;;5057376;28;20226;-77
2022/01/20 09:49:38;;;;;;;9.05;1.90;;;7.00;99.90;;;;;;5055643;28;20174;-79
2022/01/20 09:52:05;;;;;;;14.98;2.22;;;7.20;99.90;;;;;;5061399;28;20237;-77
2022/01/20 09:54:31;;;;;;;11.68;2.00;;;7.20;99.90;;;;;;5059155;28;20210;-86
2022/01/20 09:56:58;;;;;;;18.45;3.58;;;7.30;99.90;;;;;;5059667;28;20244;-76
2022/01/20 09:59:24;;;;;;;10.40;1.88;;;7.50;99.90;;;;;;5060246;28;20167;-80
2022/01/20 10:01:56;;;;;;;15.18;2.10;;;7.40;99.90;;;;;;5057053;28;20195;-81
2022/01/20 10:04:24;;;;;;;13.43;1.95;;;7.20;99.90;;;;;;5041714;28;20182;-79
2022/01/20 10:07:08;;;;;;;18.80;2.75;;;7.50;99.90;;;;;;5026967;28;20242;-77
2022/01/20 10:09:41;;;;;;;6.97;2.83;;;7.60;99.90;;;;;;5057260;28;20171;-76
2022/01/20 10:12:09;;;;;;;10.02;2.00;;;7.50;99.90;;;;;;5051504;28;20294;-76
2022/01/20 10:14:45;;;;;;;22.67;3.67;;;7.50;99.90;;;;;;5050840;28;20163;-76
2022/01/20 10:17:30;;;;;;;15.93;2.42;;;7.30;99.90;;;;;;5050174;28;20703;-75
2022/01/20 10:20:07;;;;;;;6.88;2.55;;;7.30;99.90;;;;;;5052273;28;20178;-78
2022/01/20 10:22:36;;;;;;;13.80;1.70;;;7.10;99.90;;;;;;5073017;28;20232;-77
2022/01/20 10:25:14;;;;;;;10.80;3.40;;;7.20;99.90;;;;;;5061785;28;20607;-76
2022/01/20 10:27:55;;;;;;;11.63;2.30;;;7.20;99.90;;;;;;5045208;28;20213;-75
2022/01/20 10:30:24;;;;;;;14.02;2.35;;;7.20;99.90;;;;;;5046222;28;20189;-77
2022/01/20 10:32:52;;;;;;;12.55;2.15;;;7.40;99.90;;;;;;5052972;28;20203;-76
2022/01/20 10:35:25;;;;;;;13.40;2.72;;;7.50;99.90;;;;;;5050105;28;20163;-77
2022/01/20 10:38:12;;;;;;;7.97;1.40;;;7.60;99.90;;;;;;5053183;28;20599;-77
2022/01/20 10:40:49;;;;;;;4.95;1.33;;;7.40;99.90;;;;;;5046044;28;20190;-75
2022/01/20 10:43:27;;;;;;;8.10;1.60;;;7.20;99.90;;;;;;5052536;28;20174;-74
2022/01/20 10:46:04;;;;;;;5.25;1.00;;;7.30;99.90;;;;;;5060693;28;20224;-76
2022/01/20 10:48:30;;;;;;;4.47;1.55;;;7.30;99.90;;;;;;5072636;28;20253;-78
2022/01/20 10:50:55;;;;;;;13.52;1.73;;;7.40;99.90;;;;;;5071427;28;20285;-76
2022/01/20 10:53:23;;;;;;;14.95;2.40;;;7.40;99.90;;;;;;5070778;28;20174;-75
2022/01/20 10:55:49;;;;;;;5.80;2.60;;;7.70;99.90;;;;;;5058967;28;20182;-75
2022/01/20 10:58:22;;;;;;;14.23;2.00;;;7.80;99.90;;;;;;5052039;28;20272;-74
2022/01/20 11:00:50;;;;;;;10.45;2.00;;;7.80;99.90;;;;;;5051732;28;20187;-76
2022/01/20 11:03:17;;;;;;;6.53;1.20;;;7.90;99.90;;;;;;5052046;28;20250;-75
2022/01/20 11:05:48;;;;;;;13.15;2.03;;;8.00;99.90;;;;;;5052108;28;20182;-75
2022/01/20 11:08:14;;;;;;;5.88;1.40;;;8.00;99.90;;;;;;5052068;28;20171;-77
2022/01/20 11:10:42;;;;;;;11.70;1.20;;;7.50;99.90;;;;;;5051653;28;20328;-77
2022/01/20 11:13:10;;;;;;;8.02;1.60;;;7.40;99.90;;;;;;5051821;28;20169;-76
2022/01/20 11:15:36;;;;;;;3.72;0.98;;;7.20;99.90;;;;;;5051383;28;20687;-76
2022/01/20 11:18:04;;;;;;;5.93;1.50;;;6.90;99.90;;;;;;5050236;28;20242;-77
2022/01/20 11:20:38;;;;;;;5.28;1.50;;;6.90;99.90;;;;;;5051185;28;20679;-77
2022/01/20 11:23:07;;;;;;;11.18;2.33;;;7.00;99.90;;;;;;5051298;28;20189;-76
2022/01/20 11:25:35;;;;;;;3.67;1.50;;;7.30;99.90;;;;;;5050215;28;20178;-76
2022/01/20 11:28:09;;;;;;;9.88;1.42;;;7.70;99.90;;;;;;5051546;28;20658;-76
2022/01/20 11:30:40;;;;;;;7.05;2.42;;;7.90;99.90;;;;;;5051542;28;20661;-76
2022/01/20 11:33:08;;;;;;;8.20;2.60;;;8.00;99.90;;;;;;5051124;28;20187;-76
2022/01/20 11:35:38;;;;;;;14.38;1.58;;;8.00;99.90;;;;;;5051425;28;20174;-77
2022/01/20 11:38:04;;;;;;;10.30;1.88;;;7.90;99.90;;;;;;5051554;28;20185;-79
2022/01/20 11:40:30;;;;;;;5.78;1.33;;;8.10;99.90;;;;;;5055364;28;20190;-76
2022/01/20 11:42:57;;;;;;;7.32;1.35;;;8.00;99.90;;;;;;5054967;28;20167;-76
2022/01/20 11:45:46;;;;;;;7.25;1.52;;;7.50;99.90;;;;;;5055713;28;20627;-77
2022/01/20 11:48:19;;;;;;;17.23;1.55;;;6.90;99.90;;;;;;5054762;28;20229;-76
2022/01/20 11:50:47;;;;;;;9.68;1.33;;;6.80;99.90;;;;;;5055279;28;20236;-75
2022/01/20 11:53:18;;;;;;;9.93;1.80;;;6.60;99.90;;;;;;5055121;28;20178;-75
2022/01/20 11:55:48;;;;;;;14.43;2.60;;;6.60;99.90;;;;;;5055571;28;20197;-75
2022/01/20 11:58:15;;;;;;;13.35;1.88;;;6.70;99.90;;;;;;5055191;28;20632;-76
2022/01/20 12:00:41;;;;;;;7.15;1.90;;;6.80;99.90;;;;;;5054174;28;20186;-75
2022/01/20 12:03:14;;;;;;;8.38;1.20;;;6.80;99.90;;;;;;5055317;28;20631;-76
2022/01/20 12:05:40;;;;;;;4.60;1.25;;;6.90;99.90;;;;;;5057059;28;20179;-76
2022/01/20 12:08:20;;;;;;;11.80;2.10;;;6.70;99.90;;;;;;5056834;28;20176;-76
2022/01/20 12:11:05;;;;;;;5.20;1.58;;;6.40;99.90;;;;;;5055607;28;20193;-76
2022/01/20 12:13:31;;;;;;;3.50;1.50;;;6.40;99.90;;;;;;5054843;28;20163;-77
2022/01/20 12:16:00;;;;;;;10.02;1.38;;;6.40;99.90;;;;;;5057378;28;20248;-79
2022/01/20 12:18:27;;;;;;;12.90;1.38;;;6.70;99.90;;;;;;5057909;28;20560;-76
2022/01/20 12:20:53;;;;;;;4.75;1.40;;;6.90;99.90;;;;;;5058343;28;20203;-76
2022/01/20 12:23:19;;;;;;;3.58;1.30;;;7.10;99.90;;;;;;5057124;28;20509;-76
2022/01/20 12:25:46;;;;;;;4.68;1.35;;;7.20;99.90;;;;;;5054080;28;20186;-76
2022/01/20 12:28:14;;;;;;;11.68;1.70;;;7.00;99.90;;;;;;5051935;28;20175;-75
2022/01/20 12:30:49;;;;;;;4.22;0.85;;;6.80;99.90;;;;;;5055856;28;20240;-77
2022/01/20 12:33:17;;;;;;;3.78;1.17;;;6.40;99.90;;;;;;5054652;28;20253;-76
2022/01/20 12:35:44;;;;;;;13.05;1.60;;;6.00;99.90;;;;;;5052959;28;20167;-76
2022/01/20 12:38:28;;;;;;;6.10;1.73;;;6.00;99.90;;;;;;5054150;28;20194;-76
2022/01/20 12:41:07;;;;;;;10.02;1.80;;;6.00;99.90;;;;;;5055010;28;20206;-76
2022/01/20 12:43:45;;;;;;;9.32;1.58;;;5.90;99.90;;;;;;5055064;28;20190;-76
2022/01/20 12:46:32;;;;;;;4.95;1.65;;;5.90;99.90;;;;;;5055222;28;20171;-77
2022/01/20 12:49:13;;;;;;;8.20;1.83;;;5.90;99.90;;;;;;5054093;28;20179;-76
2022/01/20 12:51:53;;;;;;;7.43;2.08;;;5.80;99.90;;;;;;5054533;28;20683;-76
2022/01/20 12:54:27;;;;;;;9.90;2.80;;;6.00;99.90;;;;;;5054886;28;20167;-76
2022/01/20 12:56:55;;;;;;;6.07;1.40;;;6.00;99.90;;;;;;5054724;28;20246;-76
2022/01/20 12:59:25;;;;;;;5.20;1.35;;;6.00;99.90;;;;;;5054672;28;20168;-76
2022/01/20 13:01:54;;;;;;;6.47;1.23;;;5.80;99.90;;;;;;5054927;28;20274;-76
2022/01/20 13:04:25;;;;;;;7.05;1.10;;;5.90;99.90;;;;;;5054623;28;20178;-76
2022/01/20 13:06:56;;;;;;;5.22;1.90;;;5.90;99.90;;;;;;5054488;28;20281;-77
2022/01/20 13:09:24;;;;;;;6.05;2.05;;;5.90;99.90;;;;;;5054891;28;20202;-76
2022/01/20 13:11:55;;;;;;;7.15;1.33;;;5.80;99.90;;;;;;5053943;28;20199;-77
2022/01/20 13:14:43;;;;;;;7.10;1.42;;;5.90;99.90;;;;;;5054568;28;20178;-75
2022/01/20 13:17:11;;;;;;;8.20;1.75;;;6.00;99.90;;;;;;5054348;28;20540;-76
2022/01/20 13:19:46;;;;;;;4.88;1.40;;;6.10;99.90;;;;;;5054265;28;20171;-76
2022/01/20 13:22:39;;;;;;;6.65;1.40;;;6.30;99.90;;;;;;5053618;28;20214;-75
2022/01/20 13:25:09;;;;;;;5.30;2.20;;;6.50;99.90;;;;;;5054239;28;20156;-76
2022/01/20 13:27:37;;;;;;;12.10;1.40;;;6.70;99.90;;;;;;5054512;28;20174;-76
2022/01/20 13:30:04;;;;;;;2.60;1.10;;;6.90;99.90;;;;;;5053881;28;20182;-77
2022/01/20 13:32:30;;;;;;;12.60;2.00;;;6.90;99.90;;;;;;5053789;28;20213;-76
2022/01/20 13:35:00;;;;;;;4.55;1.02;;;7.00;99.90;;;;;;5053823;28;20167;-76
2022/01/20 13:37:29;;;;;;;10.55;2.58;;;7.00;99.90;;;;;;5053541;28;20246;-77
2022/01/20 13:39:56;;;;;;;5.15;1.83;;;7.00;99.90;;;;;;5053974;28;20529;-76
2022/01/20 13:45:13;;;;;;;11.27;1.42;;;7.30;99.90;;;;;;5053686;28;20203;-77
2022/01/20 13:48:23;;;;;;;3.40;1.55;;;7.30;99.90;;;;;;5053527;28;20166;-74
2022/01/20 13:50:55;;;;;;;7.60;1.80;;;7.20;99.90;;;;;;5071396;28;20194;-74
2022/01/20 13:53:25;;;;;;;8.30;1.80;;;7.30;99.90;;;;;;5055585;28;20197;-74
2022/01/20 13:55:50;;;;;;;2.83;0.65;;;7.20;99.90;;;;;;5053426;28;20167;-75
2022/01/20 13:58:25;;;;;;;4.65;0.63;;;6.80;99.90;;;;;;5052857;28;20647;-74
2022/01/20 14:00:51;;;;;;;3.72;1.20;;;6.30;99.90;;;;;;5053010;28;20272;-76
2022/01/20 14:03:18;;;;;;;9.65;0.60;;;5.90;99.90;;;;;;5053101;28;20635;-75
2022/01/20 14:05:44;;;;;;;4.35;0.90;;;5.70;99.90;;;;;;5052910;28;20167;-75
2022/01/20 14:08:10;;;;;;;6.10;1.02;;;5.70;99.90;;;;;;5053275;28;20235;-75
2022/01/20 14:10:36;;;;;;;8.05;1.35;;;5.70;99.90;;;;;;5053145;28;20269;-75